»·PEaware :: N980AN KSBA-KBUR

N980AN :: KSBA-KBUR

FLIGHT INFORMATION

Flight Status: Arrived
Operator: Privately registered:
United States
More flights under this callsign
Pilot: Sergei F. (8485)
Aircraft: BOEING 737-800
(B738)
More flights by this aircraft type
Origin: KSBA Santa Barbara Mun
United States
Destination: KBUR Bob Hope-Burbank
United States
More flights between these airports :: More routes between these airports
Route: HENER V186 FIM FERN7
File this flight plan on PilotEdge
Remarks: TEC SBAP3
Altitude:
(Current/Filed)
11,000ft
Speed:
(Current/Filed)
300kts
Departed: 22-Feb-21 08:47 PM
Arrived: 22-Feb-21 09:15 PM
Distance/Time
Traveled:
75nm/0:28
Distance/Time
To Go:
Arrived

Flight Plot

Page will automatically refresh every two minutes.

Flight plan parsing failed; only flown route is shown


Map Options




Map Legend


Flown Route
Filed Route
Departure Airport
Arrival Airport
Navaid (VOR, NDB)
Fix

Horizontal Profiles

Position Reports

Time Latitude Longitude Heading Altitude Ground
Speed
22-Feb-21 20:26 34.424299 -119.837068 105 17ft 0kts
22-Feb-21 20:27 34.424299 -119.837068 105 17ft 0kts
22-Feb-21 20:28 34.424299 -119.837068 105 17ft 0kts
22-Feb-21 20:29 34.424299 -119.837068 105 17ft 0kts
22-Feb-21 20:30 34.424299 -119.837068 105 17ft 0kts
22-Feb-21 20:31 34.424299 -119.837068 105 17ft 0kts
22-Feb-21 20:32 34.424299 -119.837068 105 17ft 0kts
22-Feb-21 20:33 34.424299 -119.837068 105 17ft 0kts
22-Feb-21 20:34 34.424299 -119.837068 105 17ft 0kts
22-Feb-21 20:35 34.424299 -119.837068 105 17ft 0kts
22-Feb-21 20:36 34.424299 -119.837068 105 17ft 0kts
22-Feb-21 20:37 34.424299 -119.837068 105 17ft 0kts
22-Feb-21 20:38 34.424294 -119.837500 41 18ft 2kts
22-Feb-21 20:39 34.424039 -119.837548 345 18ft 0kts
22-Feb-21 20:40 34.424039 -119.837548 345 18ft 0kts
22-Feb-21 20:41 34.424040 -119.837548 345 18ft 0kts
22-Feb-21 20:42 34.425872 -119.838094 345 19ft 9kts
22-Feb-21 20:43 34.426740 -119.836333 89 16ft 10kts
22-Feb-21 20:44 34.427000 -119.834656 10 16ft 2kts
22-Feb-21 20:45 34.427902 -119.835171 269 16ft 0kts
22-Feb-21 20:46 34.427417 -119.860847 268 551ft 174kts
22-Feb-21 20:47 34.425837 -119.921537 268 3313ft 194kts
22-Feb-21 20:48 34.421480 -119.994924 243 5379ft 231kts
22-Feb-21 20:49 34.368774 -119.998541 119 7515ft 242kts
22-Feb-21 20:50 34.361113 -119.916907 92 9638ft 250kts
22-Feb-21 20:51 34.359176 -119.831180 92 10983ft 258kts
22-Feb-21 20:52 34.357416 -119.745148 92 11000ft 256kts
22-Feb-21 20:53 34.355689 -119.658763 92 11003ft 259kts
22-Feb-21 20:54 34.350979 -119.571882 94 11002ft 258kts
22-Feb-21 20:55 34.345889 -119.485590 94 11003ft 257kts
22-Feb-21 20:56 34.340827 -119.398589 94 11005ft 258kts
22-Feb-21 20:57 34.335847 -119.311958 95 11008ft 257kts
22-Feb-21 20:58 34.331251 -119.225364 90 11009ft 258kts
22-Feb-21 20:59 34.337704 -119.138813 85 11014ft 258kts
22-Feb-21 21:00 34.344234 -119.051842 85 11017ft 258kts
22-Feb-21 21:01 34.350684 -118.964514 86 11018ft 260kts
22-Feb-21 21:02 34.334395 -118.881143 124 11018ft 259kts
22-Feb-21 21:03 34.278858 -118.827195 152 11016ft 256kts
22-Feb-21 21:04 34.220488 -118.785722 133 9974ft 249kts
22-Feb-21 21:05 34.209042 -118.705600 90 8228ft 241kts
22-Feb-21 21:06 34.230778 -118.641499 7 6379ft 223kts
22-Feb-21 21:07 34.257984 -118.690060 236 4795ft 218kts
22-Feb-21 21:08 34.214731 -118.679384 98 4007ft 191kts
22-Feb-21 21:09 34.209115 -118.613600 97 4012ft 198kts
22-Feb-21 21:10 34.200314 -118.546150 91 3879ft 198kts
22-Feb-21 21:11 34.198753 -118.481944 87 2578ft 181kts
22-Feb-21 21:12 34.198788 -118.427982 89 1738ft 146kts
22-Feb-21 21:13 34.198033 -118.380521 90 1003ft 142kts
22-Feb-21 21:14 34.197698 -118.352910 90 706ft 16kts
22-Feb-21 21:15 34.196848 -118.351529 182 702ft 0kts
22-Feb-21 21:16 34.196811 -118.351529 180 702ft 0kts
22-Feb-21 21:17 34.196811 -118.351529 180 702ft 0kts
22-Feb-21 21:18 34.196811 -118.351529 180 702ft 0kts
22-Feb-21 21:22 34.196811 -118.351529 180 702ft 0kts
22-Feb-21 21:23 34.196811 -118.351529 180 702ft 0kts
22-Feb-21 21:24 34.196811 -118.351529 180 702ft 0kts

Navigation Log

Ident Type
Flight plan parsing failed, navigation log unavailable